sensor_id;sensor_type;location;lat;lon;timestamp;temperature;humidity
10678;DHT22;5387;48.722;9.110;2022-08-21T00:02:16;16.00;99.90
10678;DHT22;5387;48.722;9.110;2022-08-21T00:04:43;15.90;99.90
10678;DHT22;5387;48.722;9.110;2022-08-21T00:07:10;15.90;99.90
10678;DHT22;5387;48.722;9.110;2022-08-21T00:09:38;15.80;99.90
10678;DHT22;5387;48.722;9.110;2022-08-21T00:12:06;15.70;99.90
10678;DHT22;5387;48.722;9.110;2022-08-21T00:14:34;15.60;99.90
10678;DHT22;5387;48.722;9.110;2022-08-21T00:17:02;15.60;99.90
10678;DHT22;5387;48.722;9.110;2022-08-21T00:19:29;15.60;99.90
10678;DHT22;5387;48.722;9.110;2022-08-21T00:21:57;15.50;99.90
10678;DHT22;5387;48.722;9.110;2022-08-21T00:24:25;15.40;99.90
10678;DHT22;5387;48.722;9.110;2022-08-21T00:26:53;15.30;99.90
10678;DHT22;5387;48.722;9.110;2022-08-21T00:29:20;15.20;99.90
10678;DHT22;5387;48.722;9.110;2022-08-21T00:31:47;15.20;99.90
10678;DHT22;5387;48.722;9.110;2022-08-21T00:34:14;15.20;99.90
10678;DHT22;5387;48.722;9.110;2022-08-21T00:36:41;15.10;99.90
10678;DHT22;5387;48.722;9.110;2022-08-21T00:39:08;15.00;99.90
10678;DHT22;5387;48.722;9.110;2022-08-21T00:41:36;14.90;99.90
10678;DHT22;5387;48.722;9.110;2022-08-21T00:44:07;14.90;99.90
10678;DHT22;5387;48.722;9.110;2022-08-21T00:46:34;14.80;99.90
10678;DHT22;5387;48.722;9.110;2022-08-21T00:49:02;14.70;99.90
10678;DHT22;5387;48.722;9.110;2022-08-21T00:51:36;14.70;99.90
10678;DHT22;5387;48.722;9.110;2022-08-21T00:54:04;14.60;99.90
10678;DHT22;5387;48.722;9.110;2022-08-21T00:56:31;14.50;99.90
10678;DHT22;5387;48.722;9.110;2022-08-21T00:58:59;14.50;99.90
10678;DHT22;5387;48.722;9.110;2022-08-21T01:01:28;14.50;99.90
10678;DHT22;5387;48.722;9.110;2022-08-21T01:03:55;14.40;99.90
10678;DHT22;5387;48.722;9.110;2022-08-21T01:06:22;14.50;99.90
10678;DHT22;5387;48.722;9.110;2022-08-21T01:08:48;14.50;99.90
10678;DHT22;5387;48.722;9.110;2022-08-21T01:11:16;14.50;99.90
10678;DHT22;5387;48.722;9.110;2022-08-21T01:13:43;14.60;99.90
10678;DHT22;5387;48.722;9.110;2022-08-21T01:16:14;14.60;99.90
10678;DHT22;5387;48.722;9.110;2022-08-21T01:18:44;14.70;99.90
10678;DHT22;5387;48.722;9.110;2022-08-21T01:21:14;14.60;99.90
10678;DHT22;5387;48.722;9.110;2022-08-21T01:23:43;14.70;99.90
10678;DHT22;5387;48.722;9.110;2022-08-21T01:26:11;14.70;99.90
10678;DHT22;5387;48.722;9.110;2022-08-21T01:28:44;14.60;99.90
10678;DHT22;5387;48.722;9.110;2022-08-21T01:31:14;14.60;99.90
10678;DHT22;5387;48.722;9.110;2022-08-21T01:33:41;14.60;99.90
10678;DHT22;5387;48.722;9.110;2022-08-21T01:36:08;14.60;99.90
10678;DHT22;5387;48.722;9.110;2022-08-21T01:38:36;14.70;99.90
10678;DHT22;5387;48.722;9.110;2022-08-21T01:41:03;14.50;99.90
10678;DHT22;5387;48.722;9.110;2022-08-21T01:43:30;14.60;99.90
10678;DHT22;5387;48.722;9.110;2022-08-21T01:45:57;14.60;99.90
10678;DHT22;5387;48.722;9.110;2022-08-21T01:48:25;14.70;99.90
10678;DHT22;5387;48.722;9.110;2022-08-21T01:50:52;14.70;99.90
10678;DHT22;5387;48.722;9.110;2022-08-21T01:53:19;14.60;99.90
10678;DHT22;5387;48.722;9.110;2022-08-21T01:55:47;14.60;99.90
10678;DHT22;5387;48.722;9.110;2022-08-21T01:58:14;14.70;99.90
10678;DHT22;5387;48.722;9.110;2022-08-21T02:00:41;14.60;99.90
10678;DHT22;5387;48.722;9.110;2022-08-21T02:03:08;14.50;99.90
10678;DHT22;5387;48.722;9.110;2022-08-21T02:05:35;14.40;99.90
10678;DHT22;5387;48.722;9.110;2022-08-21T02:08:03;14.40;99.90
10678;DHT22;5387;48.722;9.110;2022-08-21T02:10:32;14.40;99.90
10678;DHT22;5387;48.722;9.110;2022-08-21T02:13:00;14.40;99.90
10678;DHT22;5387;48.722;9.110;2022-08-21T02:15:28;14.30;99.90
10678;DHT22;5387;48.722;9.110;2022-08-21T02:18:00;14.30;99.90
10678;DHT22;5387;48.722;9.110;2022-08-21T02:20:33;14.20;99.90
10678;DHT22;5387;48.722;9.110;2022-08-21T02:23:00;14.20;99.90
10678;DHT22;5387;48.722;9.110;2022-08-21T02:25:28;14.00;99.90
10678;DHT22;5387;48.722;9.110;2022-08-21T02:27:56;13.90;99.90
10678;DHT22;5387;48.722;9.110;2022-08-21T02:30:27;13.90;99.90
10678;DHT22;5387;48.722;9.110;2022-08-21T02:32:55;14.00;99.90
10678;DHT22;5387;48.722;9.110;2022-08-21T02:35:22;14.00;99.90
10678;DHT22;5387;48.722;9.110;2022-08-21T02:37:50;14.00;99.90
10678;DHT22;5387;48.722;9.110;2022-08-21T02:40:19;14.00;99.90
10678;DHT22;5387;48.722;9.110;2022-08-21T02:42:47;14.10;99.90
10678;DHT22;5387;48.722;9.110;2022-08-21T02:45:15;14.10;99.90
10678;DHT22;5387;48.722;9.110;2022-08-21T02:47:48;14.00;99.90
10678;DHT22;5387;48.722;9.110;2022-08-21T02:50:19;14.00;99.90
10678;DHT22;5387;48.722;9.110;2022-08-21T02:52:46;13.90;99.90
10678;DHT22;5387;48.722;9.110;2022-08-21T02:55:13;13.90;99.90
10678;DHT22;5387;48.722;9.110;2022-08-21T02:57:40;13.90;99.90
10678;DHT22;5387;48.722;9.110;2022-08-21T03:00:08;13.90;99.90
10678;DHT22;5387;48.722;9.110;2022-08-21T03:02:36;13.80;99.90
10678;DHT22;5387;48.722;9.110;2022-08-21T03:05:06;13.70;99.90
10678;DHT22;5387;48.722;9.110;2022-08-21T03:07:33;13.70;99.90
10678;DHT22;5387;48.722;9.110;2022-08-21T03:10:01;13.70;99.90
10678;DHT22;5387;48.722;9.110;2022-08-21T03:12:28;13.70;99.90
10678;DHT22;5387;48.722;9.110;2022-08-21T03:14:55;13.60;99.90
10678;DHT22;5387;48.722;9.110;2022-08-21T03:17:22;13.60;99.90
10678;DHT22;5387;48.722;9.110;2022-08-21T03:19:49;13.50;99.90
10678;DHT22;5387;48.722;9.110;2022-08-21T03:22:18;13.40;99.90
10678;DHT22;5387;48.722;9.110;2022-08-21T03:24:44;13.30;99.90
10678;DHT22;5387;48.722;9.110;2022-08-21T03:27:11;13.30;99.90
10678;DHT22;5387;48.722;9.110;2022-08-21T03:29:39;13.30;99.90
10678;DHT22;5387;48.722;9.110;2022-08-21T03:32:06;13.20;99.90
10678;DHT22;5387;48.722;9.110;2022-08-21T03:34:34;13.10;99.90
10678;DHT22;5387;48.722;9.110;2022-08-21T03:37:01;13.10;99.90
10678;DHT22;5387;48.722;9.110;2022-08-21T03:39:30;13.00;99.90
10678;DHT22;5387;48.722;9.110;2022-08-21T03:41:57;13.00;99.90
10678;DHT22;5387;48.722;9.110;2022-08-21T03:44:25;13.10;99.90
10678;DHT22;5387;48.722;9.110;2022-08-21T03:46:53;12.90;99.90
10678;DHT22;5387;48.722;9.110;2022-08-21T03:49:20;12.80;99.90
10678;DHT22;5387;48.722;9.110;2022-08-21T03:51:47;12.80;99.90
10678;DHT22;5387;48.722;9.110;2022-08-21T03:54:14;12.80;99.90
10678;DHT22;5387;48.722;9.110;2022-08-21T03:56:42;12.80;99.90
10678;DHT22;5387;48.722;9.110;2022-08-21T03:59:09;12.80;99.90
10678;DHT22;5387;48.722;9.110;2022-08-21T04:01:36;12.80;99.90
10678;DHT22;5387;48.722;9.110;2022-08-21T04:04:05;12.80;99.90
10678;DHT22;5387;48.722;9.110;2022-08-21T04:06:32;12.90;99.90
10678;DHT22;5387;48.722;9.110;2022-08-21T04:08:59;12.90;99.90
10678;DHT22;5387;48.722;9.110;2022-08-21T04:11:26;12.90;99.90
10678;DHT22;5387;48.722;9.110;2022-08-21T04:13:54;12.90;99.90
10678;DHT22;5387;48.722;9.110;2022-08-21T04:16:21;13.00;99.90
10678;DHT22;5387;48.722;9.110;2022-08-21T04:18:48;13.00;99.90
10678;DHT22;5387;48.722;9.110;2022-08-21T04:21:14;12.90;99.90
10678;DHT22;5387;48.722;9.110;2022-08-21T04:23:41;12.80;99.90
10678;DHT22;5387;48.722;9.110;2022-08-21T04:26:08;12.80;99.90
10678;DHT22;5387;48.722;9.110;2022-08-21T04:28:35;12.80;99.90
10678;DHT22;5387;48.722;9.110;2022-08-21T04:31:04;12.80;99.90
10678;DHT22;5387;48.722;9.110;2022-08-21T04:33:30;12.70;99.90
10678;DHT22;5387;48.722;9.110;2022-08-21T04:35:57;12.70;99.90
10678;DHT22;5387;48.722;9.110;2022-08-21T04:38:24;12.80;99.90
10678;DHT22;5387;48.722;9.110;2022-08-21T04:40:52;12.70;99.90
10678;DHT22;5387;48.722;9.110;2022-08-21T04:43:19;12.60;99.90
10678;DHT22;5387;48.722;9.110;2022-08-21T04:45:47;12.60;99.90
10678;DHT22;5387;48.722;9.110;2022-08-21T04:48:18;12.60;99.90
10678;DHT22;5387;48.722;9.110;2022-08-21T04:50:48;12.50;99.90
10678;DHT22;5387;48.722;9.110;2022-08-21T04:53:18;12.50;99.90
10678;DHT22;5387;48.722;9.110;2022-08-21T04:55:47;12.60;99.90
10678;DHT22;5387;48.722;9.110;2022-08-21T04:58:17;12.60;99.90
10678;DHT22;5387;48.722;9.110;2022-08-21T05:00:45;12.60;99.90
10678;DHT22;5387;48.722;9.110;2022-08-21T05:03:16;12.70;99.90
10678;DHT22;5387;48.722;9.110;2022-08-21T05:05:43;12.70;99.90
10678;DHT22;5387;48.722;9.110;2022-08-21T05:08:13;12.80;99.90
10678;DHT22;5387;48.722;9.110;2022-08-21T05:10:41;12.90;99.90
10678;DHT22;5387;48.722;9.110;2022-08-21T05:13:10;13.00;99.90
10678;DHT22;5387;48.722;9.110;2022-08-21T05:15:38;13.00;99.90
10678;DHT22;5387;48.722;9.110;2022-08-21T05:18:05;13.10;99.90
10678;DHT22;5387;48.722;9.110;2022-08-21T05:20:34;13.10;99.90
10678;DHT22;5387;48.722;9.110;2022-08-21T05:23:01;13.20;99.90
10678;DHT22;5387;48.722;9.110;2022-08-21T05:25:28;13.30;99.90
10678;DHT22;5387;48.722;9.110;2022-08-21T05:27:55;13.50;99.90
10678;DHT22;5387;48.722;9.110;2022-08-21T05:30:22;13.70;99.90
10678;DHT22;5387;48.722;9.110;2022-08-21T05:32:49;13.80;99.90
10678;DHT22;5387;48.722;9.110;2022-08-21T05:35:15;13.90;99.90
10678;DHT22;5387;48.722;9.110;2022-08-21T05:37:44;14.10;99.90
10678;DHT22;5387;48.722;9.110;2022-08-21T05:40:11;14.30;99.90
10678;DHT22;5387;48.722;9.110;2022-08-21T05:42:39;14.40;99.90
10678;DHT22;5387;48.722;9.110;2022-08-21T05:45:07;14.60;99.90
10678;DHT22;5387;48.722;9.110;2022-08-21T05:47:34;14.80;99.90
10678;DHT22;5387;48.722;9.110;2022-08-21T05:50:00;14.90;99.90
10678;DHT22;5387;48.722;9.110;2022-08-21T05:52:27;15.10;99.90
10678;DHT22;5387;48.722;9.110;2022-08-21T05:54:55;15.30;99.90
10678;DHT22;5387;48.722;9.110;2022-08-21T05:57:22;15.40;99.90
10678;DHT22;5387;48.722;9.110;2022-08-21T05:59:51;15.50;99.90
10678;DHT22;5387;48.722;9.110;2022-08-21T06:02:18;15.60;99.90
10678;DHT22;5387;48.722;9.110;2022-08-21T06:04:45;15.70;99.90
10678;DHT22;5387;48.722;9.110;2022-08-21T06:07:12;15.80;99.90
10678;DHT22;5387;48.722;9.110;2022-08-21T06:09:39;15.90;99.90
10678;DHT22;5387;48.722;9.110;2022-08-21T06:12:09;16.00;99.90
10678;DHT22;5387;48.722;9.110;2022-08-21T06:14:38;16.00;99.90
10678;DHT22;5387;48.722;9.110;2022-08-21T06:17:07;16.20;99.90
10678;DHT22;5387;48.722;9.110;2022-08-21T06:19:35;16.20;99.90
10678;DHT22;5387;48.722;9.110;2022-08-21T06:22:03;16.30;99.90
10678;DHT22;5387;48.722;9.110;2022-08-21T06:24:30;16.40;99.90
10678;DHT22;5387;48.722;9.110;2022-08-21T06:26:57;16.50;99.90
10678;DHT22;5387;48.722;9.110;2022-08-21T06:29:25;16.60;99.90
10678;DHT22;5387;48.722;9.110;2022-08-21T06:31:52;16.70;99.90
10678;DHT22;5387;48.722;9.110;2022-08-21T06:34:19;16.90;99.90
10678;DHT22;5387;48.722;9.110;2022-08-21T06:36:46;17.10;99.90
10678;DHT22;5387;48.722;9.110;2022-08-21T06:39:13;17.10;99.90
10678;DHT22;5387;48.722;9.110;2022-08-21T06:41:40;17.20;99.90
10678;DHT22;5387;48.722;9.110;2022-08-21T06:44:06;17.30;99.90
10678;DHT22;5387;48.722;9.110;2022-08-21T06:46:35;17.50;99.90
10678;DHT22;5387;48.722;9.110;2022-08-21T06:49:02;17.70;99.90
10678;DHT22;5387;48.722;9.110;2022-08-21T06:51:30;17.70;99.90
10678;DHT22;5387;48.722;9.110;2022-08-21T06:53:56;17.80;99.90
10678;DHT22;5387;48.722;9.110;2022-08-21T06:56:23;17.90;99.90
10678;DHT22;5387;48.722;9.110;2022-08-21T06:58:50;18.10;99.90
10678;DHT22;5387;48.722;9.110;2022-08-21T07:01:18;18.30;99.90
10678;DHT22;5387;48.722;9.110;2022-08-21T07:03:46;18.40;99.90
10678;DHT22;5387;48.722;9.110;2022-08-21T07:06:13;18.50;99.90
10678;DHT22;5387;48.722;9.110;2022-08-21T07:08:40;18.60;99.90
10678;DHT22;5387;48.722;9.110;2022-08-21T07:11:11;18.70;99.90
10678;DHT22;5387;48.722;9.110;2022-08-21T07:13:39;18.80;99.90
10678;DHT22;5387;48.722;9.110;2022-08-21T07:16:06;18.80;99.90
10678;DHT22;5387;48.722;9.110;2022-08-21T07:18:33;18.90;99.90
10678;DHT22;5387;48.722;9.110;2022-08-21T07:21:02;19.00;99.90
10678;DHT22;5387;48.722;9.110;2022-08-21T07:23:32;19.10;99.90
10678;DHT22;5387;48.722;9.110;2022-08-21T07:26:00;19.00;99.90
10678;DHT22;5387;48.722;9.110;2022-08-21T07:28:27;19.10;99.90
10678;DHT22;5387;48.722;9.110;2022-08-21T07:30:56;19.30;99.90
10678;DHT22;5387;48.722;9.110;2022-08-21T07:33:24;19.40;99.90
10678;DHT22;5387;48.722;9.110;2022-08-21T07:35:52;19.40;99.90
10678;DHT22;5387;48.722;9.110;2022-08-21T07:38:20;19.50;99.90
10678;DHT22;5387;48.722;9.110;2022-08-21T07:40:48;19.60;99.90
10678;DHT22;5387;48.722;9.110;2022-08-21T07:43:15;19.60;99.90
10678;DHT22;5387;48.722;9.110;2022-08-21T07:45:43;19.80;99.90
10678;DHT22;5387;48.722;9.110;2022-08-21T07:48:11;19.90;99.90
10678;DHT22;5387;48.722;9.110;2022-08-21T07:50:38;20.00;99.90
10678;DHT22;5387;48.722;9.110;2022-08-21T07:53:05;19.90;99.90
10678;DHT22;5387;48.722;9.110;2022-08-21T07:55:34;19.90;99.90
10678;DHT22;5387;48.722;9.110;2022-08-21T07:58:01;19.90;99.90
10678;DHT22;5387;48.722;9.110;2022-08-21T08:00:29;20.00;99.90
10678;DHT22;5387;48.722;9.110;2022-08-21T08:02:56;20.20;99.90
10678;DHT22;5387;48.722;9.110;2022-08-21T08:05:26;20.30;99.90
10678;DHT22;5387;48.722;9.110;2022-08-21T08:07:53;20.30;99.90
10678;DHT22;5387;48.722;9.110;2022-08-21T08:10:21;20.40;99.90
10678;DHT22;5387;48.722;9.110;2022-08-21T08:12:49;20.60;99.90
10678;DHT22;5387;48.722;9.110;2022-08-21T08:15:19;20.70;99.90
10678;DHT22;5387;48.722;9.110;2022-08-21T08:17:47;20.70;99.90
10678;DHT22;5387;48.722;9.110;2022-08-21T08:20:15;20.80;99.90
10678;DHT22;5387;48.722;9.110;2022-08-21T08:22:44;21.00;99.90
10678;DHT22;5387;48.722;9.110;2022-08-21T08:25:12;21.20;99.90
10678;DHT22;5387;48.722;9.110;2022-08-21T08:27:40;21.40;99.90
10678;DHT22;5387;48.722;9.110;2022-08-21T08:30:11;21.20;99.90
10678;DHT22;5387;48.722;9.110;2022-08-21T08:32:38;21.30;99.90
10678;DHT22;5387;48.722;9.110;2022-08-21T08:35:06;21.50;99.90
10678;DHT22;5387;48.722;9.110;2022-08-21T08:37:34;21.60;99.90
10678;DHT22;5387;48.722;9.110;2022-08-21T08:40:04;21.70;99.90
10678;DHT22;5387;48.722;9.110;2022-08-21T08:42:33;21.90;99.90
10678;DHT22;5387;48.722;9.110;2022-08-21T08:45:04;22.00;99.90
10678;DHT22;5387;48.722;9.110;2022-08-21T08:47:36;22.00;99.90
10678;DHT22;5387;48.722;9.110;2022-08-21T08:50:07;22.00;99.90
10678;DHT22;5387;48.722;9.110;2022-08-21T08:52:41;21.80;99.90
10678;DHT22;5387;48.722;9.110;2022-08-21T08:55:12;22.10;99.90
10678;DHT22;5387;48.722;9.110;2022-08-21T08:57:48;22.30;99.90
10678;DHT22;5387;48.722;9.110;2022-08-21T09:00:19;22.50;99.90
10678;DHT22;5387;48.722;9.110;2022-08-21T09:02:51;22.70;99.90
10678;DHT22;5387;48.722;9.110;2022-08-21T09:05:22;22.80;99.30
10678;DHT22;5387;48.722;9.110;2022-08-21T09:08:09;22.90;98.90
10678;DHT22;5387;48.722;9.110;2022-08-21T09:10:52;23.00;99.60
10678;DHT22;5387;48.722;9.110;2022-08-21T09:13:33;23.30;99.10
10678;DHT22;5387;48.722;9.110;2022-08-21T09:16:08;23.10;98.40
10678;DHT22;5387;48.722;9.110;2022-08-21T09:18:45;23.20;98.00
10678;DHT22;5387;48.722;9.110;2022-08-21T09:21:24;23.30;97.30
10678;DHT22;5387;48.722;9.110;2022-08-21T09:23:59;23.50;97.30
10678;DHT22;5387;48.722;9.110;2022-08-21T09:26:30;23.60;97.50
10678;DHT22;5387;48.722;9.110;2022-08-21T09:28:59;23.80;96.70
10678;DHT22;5387;48.722;9.110;2022-08-21T09:31:29;23.90;96.30
10678;DHT22;5387;48.722;9.110;2022-08-21T09:34:03;24.00;96.10
10678;DHT22;5387;48.722;9.110;2022-08-21T09:36:36;24.10;95.80
10678;DHT22;5387;48.722;9.110;2022-08-21T09:39:04;24.10;95.20
10678;DHT22;5387;48.722;9.110;2022-08-21T09:41:34;24.30;95.40
10678;DHT22;5387;48.722;9.110;2022-08-21T09:44:02;24.20;95.40
10678;DHT22;5387;48.722;9.110;2022-08-21T09:46:29;24.30;94.50
10678;DHT22;5387;48.722;9.110;2022-08-21T09:48:58;24.30;94.20
10678;DHT22;5387;48.722;9.110;2022-08-21T09:51:29;24.40;93.90
10678;DHT22;5387;48.722;9.110;2022-08-21T09:54:07;24.70;93.90
10678;DHT22;5387;48.722;9.110;2022-08-21T09:56:39;25.00;93.40
10678;DHT22;5387;48.722;9.110;2022-08-21T09:59:27;25.10;92.70
10678;DHT22;5387;48.722;9.110;2022-08-21T10:01:57;25.40;92.20
10678;DHT22;5387;48.722;9.110;2022-08-21T10:04:29;25.20;93.10
10678;DHT22;5387;48.722;9.110;2022-08-21T10:07:07;25.50;92.70
10678;DHT22;5387;48.722;9.110;2022-08-21T10:09:35;25.30;91.90
10678;DHT22;5387;48.722;9.110;2022-08-21T10:12:10;25.20;91.60
10678;DHT22;5387;48.722;9.110;2022-08-21T10:14:47;25.60;91.10
10678;DHT22;5387;48.722;9.110;2022-08-21T10:17:22;25.20;90.80
10678;DHT22;5387;48.722;9.110;2022-08-21T10:20:02;25.50;92.10
10678;DHT22;5387;48.722;9.110;2022-08-21T10:22:40;25.60;92.10
10678;DHT22;5387;48.722;9.110;2022-08-21T10:25:17;25.80;91.10
10678;DHT22;5387;48.722;9.110;2022-08-21T10:27:51;25.90;91.30
10678;DHT22;5387;48.722;9.110;2022-08-21T10:30:25;26.20;92.00
10678;DHT22;5387;48.722;9.110;2022-08-21T10:33:06;26.10;91.10
10678;DHT22;5387;48.722;9.110;2022-08-21T10:35:41;25.60;91.70
10678;DHT22;5387;48.722;9.110;2022-08-21T10:38:38;25.40;91.70
10678;DHT22;5387;48.722;9.110;2022-08-21T10:41:14;24.80;92.00
10678;DHT22;5387;48.722;9.110;2022-08-21T10:43:52;24.80;92.30
10678;DHT22;5387;48.722;9.110;2022-08-21T10:46:38;24.60;92.80
10678;DHT22;5387;48.722;9.110;2022-08-21T10:49:17;24.40;92.50
10678;DHT22;5387;48.722;9.110;2022-08-21T10:51:54;24.60;93.40
10678;DHT22;5387;48.722;9.110;2022-08-21T10:54:32;24.80;93.60
10678;DHT22;5387;48.722;9.110;2022-08-21T10:57:05;25.00;93.50
10678;DHT22;5387;48.722;9.110;2022-08-21T10:59:38;25.40;93.20
10678;DHT22;5387;48.722;9.110;2022-08-21T11:02:13;25.80;92.50
10678;DHT22;5387;48.722;9.110;2022-08-21T11:04:52;26.10;92.00
10678;DHT22;5387;48.722;9.110;2022-08-21T11:07:36;26.30;90.60
10678;DHT22;5387;48.722;9.110;2022-08-21T11:10:10;25.70;90.70
10678;DHT22;5387;48.722;9.110;2022-08-21T11:12:42;25.80;91.30
10678;DHT22;5387;48.722;9.110;2022-08-21T11:15:26;25.90;90.80
10678;DHT22;5387;48.722;9.110;2022-08-21T11:18:01;26.20;90.60
10678;DHT22;5387;48.722;9.110;2022-08-21T11:20:33;26.40;90.60
10678;DHT22;5387;48.722;9.110;2022-08-21T11:23:05;26.40;90.80
10678;DHT22;5387;48.722;9.110;2022-08-21T11:25:37;26.30;90.50
10678;DHT22;5387;48.722;9.110;2022-08-21T11:28:09;25.80;90.80
10678;DHT22;5387;48.722;9.110;2022-08-21T11:30:48;25.60;90.70
10678;DHT22;5387;48.722;9.110;2022-08-21T11:33:30;25.30;91.10
10678;DHT22;5387;48.722;9.110;2022-08-21T11:36:05;25.80;90.90
10678;DHT22;5387;48.722;9.110;2022-08-21T11:38:35;26.40;90.30
10678;DHT22;5387;48.722;9.110;2022-08-21T11:41:16;26.90;91.00
10678;DHT22;5387;48.722;9.110;2022-08-21T11:43:49;27.20;89.80
10678;DHT22;5387;48.722;9.110;2022-08-21T11:46:28;27.20;85.70
10678;DHT22;5387;48.722;9.110;2022-08-21T11:49:14;26.60;86.40
10678;DHT22;5387;48.722;9.110;2022-08-21T11:51:48;26.80;86.00
10678;DHT22;5387;48.722;9.110;2022-08-21T11:54:24;26.90;85.60
10678;DHT22;5387;48.722;9.110;2022-08-21T11:57:00;27.10;84.80
10678;DHT22;5387;48.722;9.110;2022-08-21T11:59:34;27.60;82.60
10678;DHT22;5387;48.722;9.110;2022-08-21T12:02:07;27.60;82.10
10678;DHT22;5387;48.722;9.110;2022-08-21T12:04:43;27.80;82.70
10678;DHT22;5387;48.722;9.110;2022-08-21T12:07:13;28.80;83.80
10678;DHT22;5387;48.722;9.110;2022-08-21T12:09:40;30.50;77.20
10678;DHT22;5387;48.722;9.110;2022-08-21T12:12:26;32.20;73.90
10678;DHT22;5387;48.722;9.110;2022-08-21T12:15:11;34.90;69.50
10678;DHT22;5387;48.722;9.110;2022-08-21T12:17:50;34.60;63.40
10678;DHT22;5387;48.722;9.110;2022-08-21T12:20:35;34.70;61.40
10678;DHT22;5387;48.722;9.110;2022-08-21T12:23:06;34.10;61.00
10678;DHT22;5387;48.722;9.110;2022-08-21T12:25:42;32.70;65.10
10678;DHT22;5387;48.722;9.110;2022-08-21T12:28:13;32.30;62.60
10678;DHT22;5387;48.722;9.110;2022-08-21T12:30:43;31.10;65.70
10678;DHT22;5387;48.722;9.110;2022-08-21T12:33:23;30.20;65.40
10678;DHT22;5387;48.722;9.110;2022-08-21T12:35:52;29.50;66.60
10678;DHT22;5387;48.722;9.110;2022-08-21T12:38:22;28.30;67.10
10678;DHT22;5387;48.722;9.110;2022-08-21T12:40:53;28.00;68.30
10678;DHT22;5387;48.722;9.110;2022-08-21T12:43:28;27.00;69.80
10678;DHT22;5387;48.722;9.110;2022-08-21T12:45:56;26.50;70.90
10678;DHT22;5387;48.722;9.110;2022-08-21T12:48:29;26.20;72.70
10678;DHT22;5387;48.722;9.110;2022-08-21T12:51:06;26.30;72.20
10678;DHT22;5387;48.722;9.110;2022-08-21T12:53:41;26.00;72.90
10678;DHT22;5387;48.722;9.110;2022-08-21T12:56:12;26.10;73.70
10678;DHT22;5387;48.722;9.110;2022-08-21T12:58:45;26.00;76.40
10678;DHT22;5387;48.722;9.110;2022-08-21T13:01:19;25.70;74.90
10678;DHT22;5387;48.722;9.110;2022-08-21T13:03:48;25.40;74.60
10678;DHT22;5387;48.722;9.110;2022-08-21T13:06:17;25.40;74.50
10678;DHT22;5387;48.722;9.110;2022-08-21T13:08:47;25.20;74.80
10678;DHT22;5387;48.722;9.110;2022-08-21T13:11:18;25.20;76.50
10678;DHT22;5387;48.722;9.110;2022-08-21T13:13:50;25.40;77.30
10678;DHT22;5387;48.722;9.110;2022-08-21T13:16:21;25.30;75.90
10678;DHT22;5387;48.722;9.110;2022-08-21T13:18:56;25.40;76.20
10678;DHT22;5387;48.722;9.110;2022-08-21T13:21:28;25.60;76.80
10678;DHT22;5387;48.722;9.110;2022-08-21T13:24:10;25.90;76.30
10678;DHT22;5387;48.722;9.110;2022-08-21T13:26:39;27.20;74.00
10678;DHT22;5387;48.722;9.110;2022-08-21T13:29:10;28.30;69.80
10678;DHT22;5387;48.722;9.110;2022-08-21T13:31:38;30.00;68.60
10678;DHT22;5387;48.722;9.110;2022-08-21T13:34:08;31.70;65.60
10678;DHT22;5387;48.722;9.110;2022-08-21T13:36:39;32.20;65.70
10678;DHT22;5387;48.722;9.110;2022-08-21T13:39:08;33.30;60.30
10678;DHT22;5387;48.722;9.110;2022-08-21T13:41:38;32.00;62.70
10678;DHT22;5387;48.722;9.110;2022-08-21T13:44:15;31.90;62.70
10678;DHT22;5387;48.722;9.110;2022-08-21T13:46:42;31.40;60.00
10678;DHT22;5387;48.722;9.110;2022-08-21T13:49:10;31.20;60.40
10678;DHT22;5387;48.722;9.110;2022-08-21T13:51:39;30.40;61.70
10678;DHT22;5387;48.722;9.110;2022-08-21T13:54:15;29.40;61.90
10678;DHT22;5387;48.722;9.110;2022-08-21T13:56:44;28.40;63.60
10678;DHT22;5387;48.722;9.110;2022-08-21T13:59:22;28.10;64.20
10678;DHT22;5387;48.722;9.110;2022-08-21T14:01:52;27.60;64.70
10678;DHT22;5387;48.722;9.110;2022-08-21T14:04:26;27.50;66.00
10678;DHT22;5387;48.722;9.110;2022-08-21T14:06:56;27.60;66.40
10678;DHT22;5387;48.722;9.110;2022-08-21T14:09:26;27.70;65.30
10678;DHT22;5387;48.722;9.110;2022-08-21T14:11:55;27.40;65.20
10678;DHT22;5387;48.722;9.110;2022-08-21T14:14:26;27.00;66.90
10678;DHT22;5387;48.722;9.110;2022-08-21T14:16:56;26.80;66.80
10678;DHT22;5387;48.722;9.110;2022-08-21T14:19:25;26.70;67.40
10678;DHT22;5387;48.722;9.110;2022-08-21T14:21:52;26.50;67.40
10678;DHT22;5387;48.722;9.110;2022-08-21T14:24:29;26.40;69.30
10678;DHT22;5387;48.722;9.110;2022-08-21T14:26:58;26.30;67.30
10678;DHT22;5387;48.722;9.110;2022-08-21T14:29:34;26.40;69.00
10678;DHT22;5387;48.722;9.110;2022-08-21T14:32:11;26.30;67.80
10678;DHT22;5387;48.722;9.110;2022-08-21T14:34:38;26.10;67.80
10678;DHT22;5387;48.722;9.110;2022-08-21T14:37:05;26.30;68.70
10678;DHT22;5387;48.722;9.110;2022-08-21T14:39:32;26.20;67.80
10678;DHT22;5387;48.722;9.110;2022-08-21T14:41:59;26.20;67.30
10678;DHT22;5387;48.722;9.110;2022-08-21T14:44:26;26.10;67.90
10678;DHT22;5387;48.722;9.110;2022-08-21T14:46:55;26.20;67.90
10678;DHT22;5387;48.722;9.110;2022-08-21T14:49:23;26.00;66.50
10678;DHT22;5387;48.722;9.110;2022-08-21T14:51:51;26.00;66.70
10678;DHT22;5387;48.722;9.110;2022-08-21T14:54:22;26.10;67.50
10678;DHT22;5387;48.722;9.110;2022-08-21T14:56:49;26.10;66.50
10678;DHT22;5387;48.722;9.110;2022-08-21T14:59:16;26.00;66.60
10678;DHT22;5387;48.722;9.110;2022-08-21T15:01:45;25.60;66.80
10678;DHT22;5387;48.722;9.110;2022-08-21T15:04:13;25.70;67.30
10678;DHT22;5387;48.722;9.110;2022-08-21T15:06:40;25.70;66.80
10678;DHT22;5387;48.722;9.110;2022-08-21T15:09:06;25.80;66.70
10678;DHT22;5387;48.722;9.110;2022-08-21T15:11:34;26.00;67.30
10678;DHT22;5387;48.722;9.110;2022-08-21T15:14:03;26.10;66.50
10678;DHT22;5387;48.722;9.110;2022-08-21T15:16:33;25.80;66.30
10678;DHT22;5387;48.722;9.110;2022-08-21T15:19:00;25.70;66.20
10678;DHT22;5387;48.722;9.110;2022-08-21T15:21:28;25.70;67.30
10678;DHT22;5387;48.722;9.110;2022-08-21T15:23:55;25.80;66.60
10678;DHT22;5387;48.722;9.110;2022-08-21T15:26:23;25.80;67.10
10678;DHT22;5387;48.722;9.110;2022-08-21T15:28:50;25.80;67.70
10678;DHT22;5387;48.722;9.110;2022-08-21T15:31:17;25.60;66.80
10678;DHT22;5387;48.722;9.110;2022-08-21T15:33:43;25.60;67.30
10678;DHT22;5387;48.722;9.110;2022-08-21T15:36:10;25.70;67.00
10678;DHT22;5387;48.722;9.110;2022-08-21T15:38:39;25.80;66.90
10678;DHT22;5387;48.722;9.110;2022-08-21T15:41:06;25.90;68.00
10678;DHT22;5387;48.722;9.110;2022-08-21T15:43:43;25.90;67.30
10678;DHT22;5387;48.722;9.110;2022-08-21T15:46:13;25.70;66.40
10678;DHT22;5387;48.722;9.110;2022-08-21T15:48:41;25.80;67.20
10678;DHT22;5387;48.722;9.110;2022-08-21T15:51:09;25.70;66.20
10678;DHT22;5387;48.722;9.110;2022-08-21T15:53:36;25.60;66.30
10678;DHT22;5387;48.722;9.110;2022-08-21T15:56:20;25.80;68.00
10678;DHT22;5387;48.722;9.110;2022-08-21T15:58:47;25.70;67.30
10678;DHT22;5387;48.722;9.110;2022-08-21T16:01:14;25.70;66.80
10678;DHT22;5387;48.722;9.110;2022-08-21T16:03:42;25.80;67.60